Weather History for KOTH - January, 2013

Change the Weather History Date:

Sunday, January 13, 2013

  Actual Average Record
Temperature  
Mean Temperature 35 °F 46 °F  
Max Temperature 43 °F 51 °F 69 °F (1943)
Min Temperature 27 °F 40 °F 18 °F (1930)
Degree Days  
Heating Degree Days 30 19  
Month to date heating degree days 264 249  
Since 1 July heating degree days 2139 2310  
Cooling Degree Days 0 0  
Month to date cooling degree days 0 0  
Year to date cooling degree days 0 0  
Moisture  
Dew Point 29 °F    
Average Humidity 85    
Maximum Humidity 100    
Minimum Humidity 62    
Precipitation  
Precipitation 0.00 in 0.35 in 2.77 in (1995)
Month to date precipitation 1.47 4.58  
Year to date precipitation 1.47 4.58  
Sea Level Pressure  
Sea Level Pressure 30.43 in    
Wind  
Wind Speed 6 mph (ESE)    
Max Wind Speed 9 mph    
Max Gust Speed -    
Visibility 10 miles    
Events      
T = Trace of Precipitation, MM = Missing Value Source: NWS Daily Summary

Daily Weather History Graph

Daily Weather History Graph

Search for Another Location

Airport or City:

Trip Planner

Search our weather history database for the weather conditions in past years. The results will help you decide how hot, cold, wet, or windy it might be!

Date:

Astronomy

Jan. 13, 2013 Rise Set
Actual Time 7:47 AM PST 5:04 PM PST
Civil Twilight 7:15 AM PST 5:36 PM PST
Nautical Twilight 6:40 AM PST 6:11 PM PST
Astronomical Twilight 6:05 AM PST 6:46 PM PST
Moon 8:44 AM PST (1/13) 7:55 PM PST (1/13)
Length of Visible Light 10h 20m
Length of Day
9h 17m
Waxing Crescent, 6% of the Moon is Illuminated
Jan 13
Waxing Crescent
Jan 18
First Quarter
Jan 26
Full
Feb 3
Last Quarter
Feb 9
New

Hourly Weather History & Observations

Time (PST) Temp. Windchill Dew Point Humidity Pressure Visibility Wind Dir Wind Speed Gust Speed Precip Events Conditions
12:15 AM 30.2 °F 23.4 °F 30.2 °F 100% 30.39 in 10.0 mi SSE 6.9 mph - N/A   Clear
12:35 AM 30.2 °F 24.3 °F 30.2 °F 100% 30.39 in 10.0 mi SSE 5.8 mph - N/A   Clear
12:55 AM 30.2 °F 24.3 °F 30.2 °F 100% 30.39 in 10.0 mi SE 5.8 mph - N/A   Clear
1:15 AM 30.2 °F 23.4 °F 30.2 °F 100% 30.39 in 10.0 mi SE 6.9 mph - N/A   Clear
1:35 AM 30.2 °F 22.6 °F 30.2 °F 100% 30.39 in 10.0 mi SE 8.1 mph - N/A   Clear
1:55 AM 30.2 °F 22.6 °F 28.4 °F 93% 30.39 in 10.0 mi ESE 8.1 mph - N/A   Clear
2:15 AM 30.2 °F 22.6 °F 30.2 °F 100% 30.39 in 10.0 mi SE 8.1 mph - N/A   Clear
2:35 AM 30.2 °F 21.9 °F 30.2 °F 100% 30.40 in 10.0 mi ESE 9.2 mph - N/A   Clear
2:55 AM 32.0 °F 24.8 °F 30.2 °F 93% 30.40 in 10.0 mi SE 8.1 mph - N/A   Clear
3:15 AM 32.0 °F 25.6 °F 30.2 °F 93% 30.40 in 10.0 mi SE 6.9 mph - N/A   Clear
3:35 AM 30.2 °F 22.6 °F 30.2 °F 100% 30.40 in 10.0 mi ESE 8.1 mph - N/A   Clear
3:55 AM 30.2 °F 22.6 °F 28.4 °F 93% 30.40 in 10.0 mi ESE 8.1 mph - N/A   Clear
4:15 AM 30.2 °F 24.3 °F 28.4 °F 93% 30.39 in 10.0 mi SSE 5.8 mph - N/A   Clear
4:35 AM 30.2 °F 25.4 °F 28.4 °F 93% 30.39 in 10.0 mi SE 4.6 mph - N/A   Clear
4:55 AM 28.4 °F 22.2 °F 28.4 °F 100% 30.39 in 10.0 mi SSE 5.8 mph - N/A   Clear
5:15 AM 28.4 °F 22.2 °F 26.6 °F 93% 30.40 in 10.0 mi SSE 5.8 mph - N/A   Clear
5:35 AM 28.4 °F 24.6 °F 28.4 °F 100% 30.41 in 10.0 mi SE 3.5 mph - N/A   Clear
5:55 AM 28.4 °F 22.2 °F 28.4 °F 100% 30.41 in 10.0 mi ESE 5.8 mph - N/A   Clear
6:15 AM 28.4 °F 21.2 °F 28.4 °F 100% 30.41 in 10.0 mi ESE 6.9 mph - N/A   Clear
6:35 AM 28.4 °F 24.6 °F 28.4 °F 100% 30.42 in 10.0 mi SE 3.5 mph - N/A   Clear
6:55 AM 28.4 °F 23.3 °F 26.6 °F 93% 30.42 in 10.0 mi SE 4.6 mph - N/A   Clear
7:15 AM 28.4 °F 23.3 °F 26.6 °F 93% 30.42 in 10.0 mi SE 4.6 mph - N/A   Clear
7:35 AM 28.4 °F 24.6 °F 28.4 °F 100% 30.43 in 10.0 mi SE 3.5 mph - N/A   Clear
7:55 AM 28.4 °F 24.6 °F 26.6 °F 93% 30.44 in 10.0 mi ESE 3.5 mph - N/A   Clear
8:15 AM 28.4 °F 21.2 °F 28.4 °F 100% 30.44 in 10.0 mi ESE 6.9 mph - N/A   Clear
8:35 AM 30.2 °F 23.4 °F 30.2 °F 100% 30.45 in 10.0 mi ESE 6.9 mph - N/A   Clear
8:55 AM 32.0 °F 24.8 °F 30.2 °F 93% 30.45 in 10.0 mi ESE 8.1 mph - N/A   Clear
9:15 AM 33.8 °F 25.8 °F 32.0 °F 93% 30.45 in 10.0 mi ESE 10.4 mph - N/A   Clear
9:35 AM 35.6 °F 29.2 °F 30.2 °F 81% 30.45 in 10.0 mi East 8.1 mph - N/A   Clear
9:55 AM 35.6 °F 29.2 °F 30.2 °F 81% 30.45 in 10.0 mi East 8.1 mph - N/A   Clear
10:15 AM 35.6 °F 30.7 °F 30.2 °F 81% 30.46 in 10.0 mi East 5.8 mph - N/A   Clear
10:35 AM 37.4 °F 31.4 °F 30.2 °F 75% 30.45 in 10.0 mi East 8.1 mph - N/A   Clear
10:55 AM 37.4 °F 31.4 °F 30.2 °F 75% 30.46 in 10.0 mi East 8.1 mph - N/A   Clear
11:15 AM 37.4 °F 30.8 °F 30.2 °F 75% 30.45 in 10.0 mi East 9.2 mph - N/A   Clear
11:35 AM 37.4 °F 30.8 °F 30.2 °F 75% 30.44 in 10.0 mi East 9.2 mph - N/A   Clear
11:55 AM 39.2 °F 33.6 °F 30.2 °F 70% 30.44 in 10.0 mi East 8.1 mph - N/A   Clear
12:15 PM 39.2 °F 34.2 °F 30.2 °F 70% 30.43 in 10.0 mi ESE 6.9 mph - N/A   Clear
12:35 PM 39.2 °F 35.0 °F 30.2 °F 70% 30.42 in 10.0 mi East 5.8 mph - N/A   Clear
12:55 PM 41.0 °F 36.4 °F 30.2 °F 65% 30.42 in 10.0 mi East 6.9 mph - N/A   Clear
1:15 PM 41.0 °F 37.1 °F 30.2 °F 65% 30.41 in 10.0 mi East 5.8 mph - N/A   Clear
1:35 PM 41.0 °F - 30.2 °F 65% 30.41 in 10.0 mi Calm Calm - N/A   Clear
1:55 PM 39.2 °F - 30.2 °F 70% 30.41 in 10.0 mi Calm Calm - N/A   Clear
2:15 PM 41.0 °F - 28.4 °F 61% 30.41 in 10.0 mi Calm Calm - N/A   Clear
2:35 PM 41.0 °F 39.0 °F 30.2 °F 65% 30.41 in 10.0 mi North 3.5 mph - N/A   Clear
2:55 PM 42.8 °F 41.1 °F 30.2 °F 61% 30.41 in 10.0 mi North 3.5 mph - N/A   Clear
3:15 PM 42.8 °F 39.3 °F 32.0 °F 66% 30.42 in 10.0 mi North 5.8 mph - N/A   Clear
3:35 PM 41.0 °F 36.4 °F 32.0 °F 70% 30.42 in 10.0 mi North 6.9 mph - N/A   Clear
3:55 PM 41.0 °F 35.8 °F 32.0 °F 70% 30.42 in 10.0 mi North 8.1 mph - N/A   Clear
4:15 PM 41.0 °F 37.1 °F 30.2 °F 65% 30.42 in 10.0 mi NE 5.8 mph - N/A   Clear
4:35 PM 39.2 °F 33.6 °F 32.0 °F 75% 30.43 in 10.0 mi NNE 8.1 mph - N/A   Clear
4:55 PM 39.2 °F 33.6 °F 30.2 °F 70% 30.43 in 10.0 mi North 8.1 mph - N/A   Clear
5:15 PM 37.4 °F 32.1 °F 32.0 °F 81% 30.43 in 10.0 mi North 6.9 mph - N/A   Clear
5:35 PM 35.6 °F 30.7 °F 30.2 °F 81% 30.43 in 10.0 mi East 5.8 mph - N/A   Clear
5:55 PM 35.6 °F 29.9 °F 30.2 °F 81% 30.44 in 10.0 mi East 6.9 mph - N/A   Clear
6:15 PM 35.6 °F 29.9 °F 30.2 °F 81% 30.44 in 10.0 mi East 6.9 mph - N/A   Clear
6:35 PM 33.8 °F 28.6 °F 28.4 °F 81% 30.45 in 10.0 mi East 5.8 mph - N/A   Clear
6:55 PM 33.8 °F 28.6 °F 28.4 °F 81% 30.46 in 10.0 mi East 5.8 mph - N/A   Clear
7:15 PM 33.8 °F 28.6 °F 28.4 °F 81% 30.46 in 10.0 mi ESE 5.8 mph - N/A   Clear
7:35 PM 33.8 °F 27.0 °F 28.4 °F 81% 30.45 in 10.0 mi East 8.1 mph - N/A   Partly Cloudy
7:55 PM 33.8 °F 27.0 °F 28.4 °F 81% 30.46 in 10.0 mi East 8.1 mph - N/A   Partly Cloudy
8:15 PM 32.0 °F 25.6 °F 28.4 °F 87% 30.47 in 10.0 mi ESE 6.9 mph - N/A   Mostly Cloudy
8:35 PM 32.0 °F 24.8 °F 28.4 °F 87% 30.46 in 10.0 mi East 8.1 mph - N/A   Mostly Cloudy
8:55 PM 32.0 °F 24.2 °F 28.4 °F 87% 30.46 in 10.0 mi East 9.2 mph - N/A   Mostly Cloudy
9:35 PM 32.0 °F 26.4 °F 28.4 °F 87% 30.45 in 10.0 mi ESE 5.8 mph - N/A   Clear
9:55 PM 30.2 °F 26.7 °F 28.4 °F 93% 30.45 in 10.0 mi ESE 3.5 mph - N/A   Clear
10:15 PM 30.2 °F 25.4 °F 28.4 °F 93% 30.46 in 10.0 mi East 4.6 mph - N/A   Clear
10:35 PM 30.2 °F 26.7 °F 28.4 °F 93% 30.46 in 10.0 mi East 3.5 mph - N/A   Clear
10:55 PM 30.2 °F - 28.4 °F 93% 30.47 in 10.0 mi Calm Calm - N/A   Clear
11:15 PM 30.2 °F - 28.4 °F 93% 30.46 in 10.0 mi Calm Calm - N/A   Clear
11:35 PM 30.2 °F 26.7 °F 28.4 °F 93% 30.46 in 10.0 mi SE 3.5 mph - N/A   Clear
11:55 PM 30.2 °F - 28.4 °F 93% 30.46 in 10.0 mi Calm Calm - N/A   Clear